LIMJ/GOA METAR and TAF weather

Enter ICAO airport designator
Station Type Date Time Source
LIMJ METAR 2020/01/17 14:20 UTC NOAA

LIMJ 171420Z 11018KT 9999 -RA BKN016 BKN025 12/10 Q1023


Station Type Date Time Source
LIMJ Decoded METAR 2020/01/17 14:20 UTC NOAA

Genova / Sestri, Italy (LIMJ) 44-25N 008-51E 3M
Jan 17, 2020 - 09:20 AM EST / 2020.01.17 1420 UTC
Wind: from the ESE (110 degrees) at 21 MPH (18 KT):0
Visibility: greater than 7 mile(s):0
Sky conditions: mostly cloudy
Weather: light rain
Temperature: 53 F (12 C)
Dew Point: 50 F (10 C)
Relative Humidity: 87%
Pressure (altimeter): 30.21 in. Hg (1023 hPa)
ob: LIMJ 171420Z 11018KT 9999 -RA BKN016 BKN025 12/10 Q1023
cycle: 14

Station Type Date Time Source
LIMJ TAF 2020/01/17 12:21 UTC NOAA

TAF LIMJ 171100Z 1712/1812 VRB05KT 9999 RA BKN018 BKN050
TEMPO 1718/1724 4000 TSRA

Example: see airport list